Time;durP1;ratioP1;P1;durP2;ratioP2;P2;SDS_P1;SDS_P2;PMS_P1;PMS_P2;Temp;Humidity;BMP_temperature;BMP_pressure;BME280_temperature;BME280_humidity;BME280_pressure;Samples;Min_cycle;Max_cycle;Signal;HPM_P1;HPM_P2
2022/07/01 00:01:44;;;;;;;11.70;11.10;;;17.30;60.20;;;;;;5031213;28;20049;-77
2022/07/01 00:04:10;;;;;;;12.10;11.10;;;17.20;60.30;;;;;;5013432;28;20044;-77
2022/07/01 00:06:36;;;;;;;12.10;11.13;;;17.20;60.30;;;;;;5013109;28;20041;-77
2022/07/01 00:09:04;;;;;;;12.10;10.93;;;17.10;60.90;;;;;;5010729;28;20038;-76
2022/07/01 00:11:31;;;;;;;11.10;10.27;;;17.10;61.00;;;;;;5014446;28;20032;-77
2022/07/01 00:13:57;;;;;;;11.82;10.73;;;17.10;61.00;;;;;;5033981;28;20046;-78
2022/07/01 00:16:23;;;;;;;11.07;10.23;;;17.10;61.10;;;;;;5015058;28;20049;-77
2022/07/01 00:18:49;;;;;;;10.93;10.30;;;17.10;61.30;;;;;;5033681;28;20025;-77
2022/07/01 00:21:15;;;;;;;11.07;10.13;;;17.10;61.50;;;;;;4998607;28;20408;-77
2022/07/01 00:23:42;;;;;;;11.27;10.48;;;17.00;61.30;;;;;;5028863;28;20402;-77
2022/07/01 00:26:08;;;;;;;11.60;10.80;;;17.00;61.70;;;;;;5034461;28;20029;-77
2022/07/01 00:28:34;;;;;;;11.85;10.90;;;16.90;61.70;;;;;;5029258;28;20033;-77
2022/07/01 00:31:00;;;;;;;11.40;10.50;;;16.90;61.90;;;;;;5029008;28;20042;-77
2022/07/01 00:33:26;;;;;;;11.98;10.63;;;16.80;61.80;;;;;;5015569;28;20048;-77
2022/07/01 00:35:53;;;;;;;12.20;10.43;;;16.80;62.10;;;;;;5027308;28;20040;-77
2022/07/01 00:38:19;;;;;;;11.30;10.25;;;16.70;62.20;;;;;;5033177;28;20052;-77
2022/07/01 00:40:50;;;;;;;11.07;10.18;;;16.60;62.40;;;;;;5029410;28;20038;-77
2022/07/01 00:43:17;;;;;;;11.25;10.27;;;16.60;63.00;;;;;;5035543;28;20032;-77
2022/07/01 00:45:45;;;;;;;11.20;10.27;;;16.60;63.20;;;;;;5015506;28;20041;-77
2022/07/01 00:48:11;;;;;;;11.00;10.20;;;16.50;63.40;;;;;;5015211;28;20041;-77
2022/07/01 00:50:37;;;;;;;11.02;10.02;;;16.50;63.70;;;;;;5033834;28;20033;-77
2022/07/01 00:53:03;;;;;;;10.82;9.82;;;16.50;63.50;;;;;;5036420;28;20036;-77
2022/07/01 00:55:29;;;;;;;12.43;10.32;;;16.40;63.60;;;;;;5035046;28;20044;-77
2022/07/01 00:57:55;;;;;;;10.40;9.50;;;16.40;63.80;;;;;;5034874;28;20040;-77
2022/07/01 01:00:26;;;;;;;11.18;9.23;;;16.40;63.70;;;;;;5034700;28;20040;-77
2022/07/01 01:02:52;;;;;;;11.27;10.20;;;16.40;63.80;;;;;;5016935;28;20395;-77
2022/07/01 01:05:20;;;;;;;11.35;9.43;;;16.30;64.00;;;;;;5035936;28;20030;-77
2022/07/01 01:07:47;;;;;;;9.68;8.88;;;16.40;64.20;;;;;;5035021;28;20053;-77
2022/07/01 01:10:13;;;;;;;10.13;9.20;;;16.30;64.10;;;;;;5035015;28;20048;-77
2022/07/01 01:12:39;;;;;;;10.05;9.38;;;16.30;64.40;;;;;;5035340;28;20368;-77
2022/07/01 01:15:06;;;;;;;10.48;9.68;;;16.20;64.60;;;;;;5032412;28;20032;-77
2022/07/01 01:17:33;;;;;;;10.18;9.35;;;16.20;65.00;;;;;;5032803;28;20030;-77
2022/07/01 01:19:59;;;;;;;10.10;9.30;;;16.20;65.00;;;;;;5037590;28;20026;-77
2022/07/01 01:22:25;;;;;;;10.43;9.15;;;16.20;64.90;;;;;;5014699;28;20305;-77
2022/07/01 01:24:51;;;;;;;9.88;9.13;;;16.10;65.00;;;;;;5028579;28;20025;-77
2022/07/01 01:27:17;;;;;;;10.35;9.40;;;16.10;65.10;;;;;;5034213;28;20395;-77
2022/07/01 01:29:43;;;;;;;10.20;9.25;;;16.10;65.50;;;;;;5031340;28;20034;-77
2022/07/01 01:32:09;;;;;;;10.30;9.43;;;16.00;65.60;;;;;;5036701;28;20034;-77
2022/07/01 01:34:37;;;;;;;10.30;9.40;;;16.10;65.80;;;;;;5034901;28;20443;-77
2022/07/01 01:37:04;;;;;;;10.45;9.48;;;16.10;65.70;;;;;;5034009;28;20038;-77
2022/07/01 01:39:30;;;;;;;10.32;9.20;;;16.10;65.70;;;;;;5034577;28;20021;-77
2022/07/01 01:41:57;;;;;;;15.77;9.45;;;16.00;65.90;;;;;;5030989;28;20575;-77
2022/07/01 01:44:23;;;;;;;10.35;9.50;;;16.00;66.10;;;;;;5035487;28;20029;-77
2022/07/01 01:46:49;;;;;;;10.88;9.98;;;16.00;66.10;;;;;;5034613;28;20399;-77
2022/07/01 01:49:15;;;;;;;11.13;10.25;;;15.90;66.30;;;;;;5034682;28;20045;-77
2022/07/01 01:51:41;;;;;;;11.90;10.38;;;15.80;66.50;;;;;;5031342;28;20058;-77
2022/07/01 01:54:07;;;;;;;11.88;11.02;;;15.80;66.60;;;;;;5032157;28;20073;-77
2022/07/01 01:56:33;;;;;;;11.05;10.25;;;15.80;66.70;;;;;;5032393;28;20033;-77
2022/07/01 01:58:59;;;;;;;11.10;10.23;;;15.80;66.70;;;;;;5018018;28;20052;-77
2022/07/01 02:01:26;;;;;;;12.00;11.07;;;15.70;67.00;;;;;;5031185;28;20053;-77
2022/07/01 02:03:52;;;;;;;12.50;11.43;;;15.70;66.90;;;;;;5014779;28;20467;-77
2022/07/01 02:06:19;;;;;;;12.30;11.13;;;15.70;67.10;;;;;;5014318;28;20040;-77
2022/07/01 02:08:45;;;;;;;11.95;10.55;;;15.70;67.10;;;;;;5031333;28;20455;-77
2022/07/01 02:11:11;;;;;;;11.00;10.07;;;15.70;67.30;;;;;;5036127;28;20033;-77
2022/07/01 02:13:37;;;;;;;11.23;10.27;;;15.70;67.00;;;;;;5031494;28;20025;-77
2022/07/01 02:16:04;;;;;;;11.00;10.10;;;15.70;67.00;;;;;;5034962;28;20033;-77
2022/07/01 02:18:32;;;;;;;11.43;10.43;;;15.60;67.30;;;;;;5031308;28;20048;-77
2022/07/01 02:20:58;;;;;;;12.05;10.93;;;15.60;67.20;;;;;;5029519;28;20049;-76
2022/07/01 02:23:25;;;;;;;11.55;10.65;;;15.60;67.70;;;;;;5032993;28;20033;-76
2022/07/01 02:25:51;;;;;;;13.60;10.75;;;15.60;67.20;;;;;;5034525;28;20404;-77
2022/07/01 02:28:17;;;;;;;11.95;10.93;;;15.50;67.50;;;;;;5031111;28;20036;-77
2022/07/01 02:30:43;;;;;;;12.48;11.43;;;15.40;67.50;;;;;;5014179;28;20044;-77
2022/07/01 02:33:09;;;;;;;12.77;11.65;;;15.40;67.90;;;;;;5028932;28;20477;-77
2022/07/01 02:35:36;;;;;;;12.85;11.75;;;15.30;68.00;;;;;;5014412;28;20041;-77
2022/07/01 02:38:03;;;;;;;11.95;11.00;;;15.30;68.20;;;;;;5015210;28;20037;-77
2022/07/01 02:40:29;;;;;;;12.98;11.77;;;15.30;68.20;;;;;;5034721;28;20558;-77
2022/07/01 02:42:55;;;;;;;12.77;11.48;;;15.30;68.30;;;;;;5030960;28;20045;-77
2022/07/01 02:45:21;;;;;;;12.07;11.15;;;15.30;68.10;;;;;;5031972;28;20044;-77
2022/07/01 02:47:47;;;;;;;13.00;11.57;;;15.30;68.20;;;;;;5029335;28;20030;-77
2022/07/01 02:50:14;;;;;;;11.80;10.90;;;15.30;68.10;;;;;;5033639;28;20040;-76
2022/07/01 02:52:41;;;;;;;12.75;11.70;;;15.20;68.30;;;;;;5030226;28;20041;-77
2022/07/01 02:55:08;;;;;;;11.40;10.70;;;15.20;68.20;;;;;;5034589;28;20052;-77
2022/07/01 02:57:34;;;;;;;11.88;10.85;;;15.20;68.70;;;;;;5030964;28;20028;-77
2022/07/01 03:00:01;;;;;;;11.70;10.60;;;15.10;68.70;;;;;;5027851;28;20041;-77
2022/07/01 03:02:27;;;;;;;11.20;10.30;;;15.00;68.70;;;;;;5032879;28;20414;-77
2022/07/01 03:04:53;;;;;;;10.75;9.98;;;15.00;68.80;;;;;;5033652;28;20034;-77
2022/07/01 03:07:19;;;;;;;11.85;10.82;;;15.10;68.90;;;;;;5032365;28;20374;-77
2022/07/01 03:09:45;;;;;;;11.00;10.30;;;15.00;68.90;;;;;;5030400;28;20088;-77
2022/07/01 03:12:28;;;;;;;11.48;10.43;;;15.00;69.40;;;;;;5028781;28;20412;-77
2022/07/01 03:14:57;;;;;;;11.43;10.73;;;15.10;69.10;;;;;;4999867;28;20033;-77
2022/07/01 03:17:27;;;;;;;11.20;10.18;;;15.00;69.10;;;;;;5033678;28;20026;-77
2022/07/01 03:19:53;;;;;;;13.15;10.30;;;15.00;69.20;;;;;;5017841;28;20033;-77
2022/07/01 03:22:24;;;;;;;11.40;10.13;;;15.00;69.50;;;;;;5029695;28;20048;-77
2022/07/01 03:24:50;;;;;;;11.80;10.40;;;15.00;69.40;;;;;;5030399;28;20025;-77
2022/07/01 03:27:16;;;;;;;11.18;10.15;;;15.10;69.70;;;;;;5033092;28;20035;-77
2022/07/01 03:29:42;;;;;;;11.43;10.63;;;15.00;69.00;;;;;;5030437;28;20025;-77
2022/07/01 03:32:09;;;;;;;11.80;10.70;;;14.90;69.40;;;;;;5033245;28;20404;-77
2022/07/01 03:34:39;;;;;;;11.73;10.68;;;14.90;69.50;;;;;;5030170;28;20026;-77
2022/07/01 03:37:06;;;;;;;11.75;10.60;;;14.90;69.80;;;;;;5033632;28;20495;-77
2022/07/01 03:39:32;;;;;;;11.50;10.50;;;14.90;69.70;;;;;;5013881;28;20029;-77
2022/07/01 03:41:58;;;;;;;11.43;10.57;;;14.80;69.60;;;;;;5012387;28;20037;-77
2022/07/01 03:44:25;;;;;;;12.32;11.35;;;14.80;69.80;;;;;;5033151;28;20021;-76
2022/07/01 03:46:51;;;;;;;11.98;11.02;;;14.80;69.50;;;;;;5013130;28;20404;-77
2022/07/01 03:49:18;;;;;;;12.07;10.95;;;14.80;69.70;;;;;;4996038;28;20381;-77
2022/07/01 03:51:44;;;;;;;12.50;11.43;;;14.80;69.90;;;;;;5024707;28;20049;-76
2022/07/01 03:56:58;;;;;;;12.05;11.02;;;14.70;69.70;;;;;;5000824;28;20503;-77
2022/07/01 03:59:25;;;;;;;11.88;10.75;;;14.70;69.70;;;;;;5033254;28;20025;-77
2022/07/01 04:01:52;;;;;;;11.95;11.05;;;14.70;70.10;;;;;;5032274;28;20045;-77
2022/07/01 04:04:19;;;;;;;16.85;11.75;;;14.60;69.90;;;;;;5033277;28;20025;-77
2022/07/01 04:06:46;;;;;;;12.77;11.45;;;14.60;70.00;;;;;;5029224;28;20411;-77
2022/07/01 04:09:12;;;;;;;13.95;11.32;;;14.60;70.10;;;;;;5028070;28;20029;-77
2022/07/01 04:11:38;;;;;;;12.15;11.32;;;14.60;70.20;;;;;;5013093;28;20028;-77
2022/07/01 04:14:04;;;;;;;13.15;11.93;;;14.60;70.10;;;;;;5016958;28;20025;-76
2022/07/01 04:16:31;;;;;;;12.77;11.75;;;14.60;70.30;;;;;;5012838;28;20506;-77
2022/07/01 04:18:57;;;;;;;11.88;11.23;;;14.60;70.10;;;;;;5003048;28;20045;-77
2022/07/01 04:24:08;;;;;;;13.27;12.13;;;14.50;70.30;;;;;;5026280;28;20053;-77
2022/07/01 04:26:34;;;;;;;13.05;12.23;;;14.50;70.60;;;;;;5035126;28;20472;-77
2022/07/01 04:29:00;;;;;;;13.30;12.07;;;14.60;70.70;;;;;;5036941;28;20093;-77
2022/07/01 04:31:27;;;;;;;13.10;12.10;;;14.50;70.40;;;;;;5032643;28;20500;-77
2022/07/01 04:33:53;;;;;;;13.07;11.98;;;14.50;70.60;;;;;;5032986;28;20030;-77
2022/07/01 04:36:19;;;;;;;13.05;11.93;;;14.50;70.50;;;;;;5018383;28;20392;-76
2022/07/01 04:38:45;;;;;;;13.27;12.13;;;14.50;70.60;;;;;;5015170;28;20042;-77
2022/07/01 04:43:56;;;;;;;13.40;12.05;;;14.50;70.90;;;;;;5037157;28;20395;-77
2022/07/01 04:46:22;;;;;;;13.88;12.82;;;14.50;71.10;;;;;;5036484;28;20042;-77
2022/07/01 04:48:48;;;;;;;14.93;13.82;;;14.50;71.10;;;;;;5036766;28;20067;-77
2022/07/01 04:51:14;;;;;;;14.43;13.40;;;14.50;71.30;;;;;;5031868;28;20025;-77
2022/07/01 04:53:40;;;;;;;14.70;13.45;;;14.60;71.40;;;;;;5033694;28;20364;-77
2022/07/01 04:56:06;;;;;;;14.80;13.80;;;14.60;71.60;;;;;;5016889;28;20038;-77
2022/07/01 04:58:32;;;;;;;14.52;13.35;;;14.60;72.50;;;;;;5015477;28;20389;-77
2022/07/01 05:00:58;;;;;;;15.00;13.90;;;14.60;72.10;;;;;;5029983;28;20029;-77
2022/07/01 05:03:24;;;;;;;15.23;13.82;;;14.60;72.10;;;;;;5036339;28;20504;-77
2022/07/01 05:05:50;;;;;;;15.30;14.20;;;14.70;72.30;;;;;;5032404;28;20044;-76
2022/07/01 05:08:16;;;;;;;14.68;13.43;;;14.80;73.00;;;;;;5036137;28;20046;-77
2022/07/01 05:10:43;;;;;;;13.63;12.82;;;14.90;73.60;;;;;;5036354;28;20048;-76
2022/07/01 05:13:09;;;;;;;13.25;12.25;;;15.00;73.60;;;;;;5032720;28;20037;-77
2022/07/01 05:15:35;;;;;;;13.15;11.93;;;15.20;73.60;;;;;;5036066;28;20494;-77
2022/07/01 05:23:30;;;;;;;14.02;13.23;;;15.90;72.20;;;;;;5046951;28;20044;-77
2022/07/01 05:25:56;;;;;;;16.27;15.15;;;16.10;71.50;;;;;;5019312;28;20036;-77
2022/07/01 05:28:22;;;;;;;20.48;19.08;;;16.30;71.20;;;;;;5018247;28;20041;-77
2022/07/01 05:30:48;;;;;;;23.30;21.85;;;16.50;70.50;;;;;;5031859;28;20045;-77
2022/07/01 05:33:14;;;;;;;22.73;21.30;;;16.70;70.00;;;;;;5034535;28;20486;-77
2022/07/01 05:35:40;;;;;;;21.17;19.70;;;16.90;69.00;;;;;;5015292;28;20041;-77
2022/07/01 05:38:06;;;;;;;18.05;16.70;;;17.10;68.20;;;;;;5035876;28;20029;-77
2022/07/01 05:40:32;;;;;;;16.58;15.35;;;17.30;67.90;;;;;;5035971;28;20030;-77
2022/07/01 05:42:59;;;;;;;16.77;15.68;;;17.40;67.30;;;;;;5015547;28;20048;-77
2022/07/01 05:45:25;;;;;;;16.23;15.20;;;17.60;66.50;;;;;;5035516;28;20498;-77
2022/07/01 05:47:51;;;;;;;16.10;14.90;;;17.70;66.10;;;;;;5031528;28;20025;-77
2022/07/01 05:50:17;;;;;;;15.57;14.57;;;17.80;65.10;;;;;;5036800;28;20036;-77
2022/07/01 05:52:44;;;;;;;16.80;15.57;;;18.00;64.90;;;;;;5031922;28;20037;-77
2022/07/01 05:55:10;;;;;;;16.10;15.00;;;18.10;64.60;;;;;;5035674;28;20388;-77
2022/07/01 05:57:36;;;;;;;16.10;15.10;;;18.20;64.20;;;;;;5031906;28;20036;-77
2022/07/01 06:00:04;;;;;;;15.70;14.70;;;18.30;63.70;;;;;;5011847;28;20049;-77
2022/07/01 06:02:30;;;;;;;16.23;15.10;;;18.50;63.20;;;;;;5033961;28;20041;-77
2022/07/01 06:04:56;;;;;;;15.95;15.00;;;18.50;62.90;;;;;;5035036;28;20041;-77
2022/07/01 06:07:22;;;;;;;16.05;14.88;;;18.50;63.20;;;;;;5035203;28;20053;-77
2022/07/01 06:09:48;;;;;;;17.10;16.02;;;18.70;62.00;;;;;;5031593;28;20044;-77
2022/07/01 06:12:14;;;;;;;17.88;16.52;;;18.70;61.60;;;;;;5034061;28;20468;-77
2022/07/01 06:14:40;;;;;;;18.50;17.40;;;18.70;62.00;;;;;;5031969;28;20029;-77
2022/07/01 06:17:08;;;;;;;19.48;18.02;;;18.80;62.00;;;;;;5034426;28;20506;-77
2022/07/01 06:19:34;;;;;;;20.05;18.83;;;19.00;61.10;;;;;;5014853;28;20045;-77
2022/07/01 06:22:00;;;;;;;21.83;20.33;;;19.20;60.90;;;;;;5035264;28;20048;-77
2022/07/01 06:24:26;;;;;;;22.05;20.75;;;19.30;60.10;;;;;;5035260;28;20387;-77
2022/07/01 06:26:52;;;;;;;22.80;21.30;;;19.40;59.60;;;;;;5030898;28;20033;-77
2022/07/01 06:29:18;;;;;;;24.42;22.83;;;19.60;59.60;;;;;;5042932;28;20033;-77
2022/07/01 06:31:44;;;;;;;24.40;22.45;;;19.70;59.40;;;;;;5040635;28;20045;-77
2022/07/01 06:34:10;;;;;;;22.48;21.13;;;19.70;59.20;;;;;;5034951;28;20403;-77
2022/07/01 06:36:36;;;;;;;22.27;20.88;;;19.80;58.90;;;;;;5000360;28;20052;-77
2022/07/01 06:39:02;;;;;;;22.92;21.50;;;19.80;58.80;;;;;;5046311;28;20484;-77
2022/07/01 06:41:28;;;;;;;25.52;23.98;;;20.00;59.00;;;;;;5031160;28;20049;-77
2022/07/01 06:43:55;;;;;;;23.30;21.70;;;20.10;59.00;;;;;;5033949;28;20033;-77
2022/07/01 06:46:22;;;;;;;26.77;25.15;;;20.20;58.50;;;;;;5034021;28;20033;-77
2022/07/01 06:48:48;;;;;;;26.88;25.40;;;20.20;58.30;;;;;;5031008;28;20033;-78
2022/07/01 06:51:14;;;;;;;31.05;28.85;;;20.40;58.10;;;;;;5033302;28;20021;-77
2022/07/01 06:53:40;;;;;;;28.05;26.15;;;20.50;57.70;;;;;;5030222;28;20033;-77
2022/07/01 06:56:06;;;;;;;33.85;32.03;;;20.70;57.60;;;;;;5035680;28;20033;-77
2022/07/01 06:58:32;;;;;;;27.95;26.23;;;20.80;56.80;;;;;;5013396;28;20052;-77
2022/07/01 07:00:58;;;;;;;32.28;30.27;;;20.90;55.90;;;;;;5030245;28;20038;-77
2022/07/01 07:03:24;;;;;;;32.80;31.00;;;21.00;56.20;;;;;;5014196;28;20411;-77
2022/07/01 07:05:52;;;;;;;23.58;22.08;;;21.00;55.90;;;;;;5028259;28;20037;-77
2022/07/01 07:08:18;;;;;;;23.00;21.67;;;21.10;55.90;;;;;;5045286;28;20064;-78
2022/07/01 07:10:44;;;;;;;24.52;23.13;;;21.20;55.40;;;;;;5033509;28;20026;-77
2022/07/01 07:13:10;;;;;;;24.55;23.20;;;21.30;55.70;;;;;;5033930;28;20034;-77
2022/07/01 07:15:36;;;;;;;26.00;24.25;;;21.40;55.10;;;;;;5033786;28;20040;-78
2022/07/01 07:18:02;;;;;;;26.77;25.15;;;21.50;54.80;;;;;;5031320;28;20033;-77
2022/07/01 07:20:28;;;;;;;28.50;26.90;;;21.50;54.50;;;;;;5033101;28;20036;-78
2022/07/01 07:22:54;;;;;;;32.30;30.33;;;21.60;54.30;;;;;;5033642;28;20041;-77
2022/07/01 07:25:21;;;;;;;29.88;28.17;;;21.70;54.10;;;;;;5030187;28;20060;-77
2022/07/01 07:27:47;;;;;;;32.15;30.35;;;21.70;55.10;;;;;;5033730;28;20396;-78
2022/07/01 07:30:13;;;;;;;34.10;31.85;;;21.90;53.50;;;;;;5032077;28;20525;-78
2022/07/01 07:32:39;;;;;;;32.40;30.40;;;21.90;53.60;;;;;;5031090;28;20034;-78
2022/07/01 07:35:06;;;;;;;34.55;32.47;;;22.00;53.40;;;;;;5034840;28;20502;-78
2022/07/01 07:37:33;;;;;;;33.30;31.35;;;22.20;53.00;;;;;;5034039;28;20387;-78
2022/07/01 07:40:00;;;;;;;29.20;27.48;;;22.20;52.60;;;;;;5034015;28;20376;-78
2022/07/01 07:42:27;;;;;;;28.15;26.27;;;22.20;51.70;;;;;;5029449;28;20049;-77
2022/07/01 07:44:53;;;;;;;29.92;28.23;;;22.20;51.20;;;;;;5011568;28;20021;-77
2022/07/01 07:47:19;;;;;;;31.83;30.23;;;22.30;51.50;;;;;;5032757;28;20396;-77
2022/07/01 07:49:45;;;;;;;32.80;30.80;;;22.40;50.70;;;;;;5029931;28;20040;-78
2022/07/01 07:52:11;;;;;;;35.05;33.35;;;22.40;50.60;;;;;;5034775;28;20038;-78
2022/07/01 07:54:38;;;;;;;37.97;35.88;;;22.60;50.10;;;;;;5034159;28;20021;-77
2022/07/01 07:57:04;;;;;;;28.42;26.83;;;22.60;49.00;;;;;;5014000;28;20056;-77
2022/07/01 07:59:30;;;;;;;29.65;28.05;;;22.50;47.60;;;;;;5017754;28;20480;-78
2022/07/01 08:01:57;;;;;;;29.30;27.67;;;22.40;48.40;;;;;;5036790;28;20038;-78
2022/07/01 08:04:23;;;;;;;30.33;28.73;;;22.40;49.30;;;;;;5041561;28;20040;-78
2022/07/01 08:06:49;;;;;;;31.27;29.48;;;22.50;48.20;;;;;;5042774;28;20492;-78
2022/07/01 08:09:15;;;;;;;30.65;29.13;;;22.70;47.70;;;;;;5036539;28;20044;-78
2022/07/01 08:11:41;;;;;;;31.80;30.10;;;22.90;46.80;;;;;;5032772;28;20026;-78
2022/07/01 08:14:07;;;;;;;31.92;30.23;;;23.00;47.20;;;;;;5038550;28;20025;-78
2022/07/01 08:16:33;;;;;;;32.55;30.80;;;23.10;45.90;;;;;;5033337;28;20038;-77
2022/07/01 08:18:59;;;;;;;30.23;28.63;;;23.20;46.00;;;;;;5016374;28;20397;-78
2022/07/01 08:21:25;;;;;;;30.75;29.17;;;23.00;45.60;;;;;;5037545;28;20029;-78
2022/07/01 08:23:51;;;;;;;31.73;29.92;;;23.00;45.80;;;;;;5031317;28;20052;-78
2022/07/01 08:26:18;;;;;;;32.63;30.90;;;23.20;45.80;;;;;;5036727;28;20033;-78
2022/07/01 08:28:44;;;;;;;30.85;29.25;;;23.30;46.20;;;;;;5033735;28;20037;-78
2022/07/01 08:31:10;;;;;;;32.05;30.35;;;23.50;45.80;;;;;;5036642;28;20037;-78
2022/07/01 08:33:38;;;;;;;33.90;32.13;;;23.60;44.40;;;;;;5033440;28;20039;-78
2022/07/01 08:36:06;;;;;;;1999.90;999.90;;;23.50;42.60;;;;;;5016905;28;20464;-78
2022/07/01 08:38:32;;;;;;;524.40;273.02;;;23.50;43.20;;;;;;5017926;28;20033;-78
2022/07/01 08:40:58;;;;;;;33.65;31.85;;;23.60;43.60;;;;;;5036476;28;20030;-78
2022/07/01 08:43:24;;;;;;;33.47;31.75;;;23.70;43.70;;;;;;5032529;28;20491;-78
2022/07/01 08:45:51;;;;;;;1999.90;999.90;;;23.80;43.40;;;;;;5036417;28;20486;-78
2022/07/01 08:48:17;;;;;;;1999.90;999.90;;;23.90;43.00;;;;;;5015729;28;20029;-78
2022/07/01 08:50:43;;;;;;;1999.90;999.90;;;24.00;42.80;;;;;;5048541;28;20479;-78
2022/07/01 08:53:10;;;;;;;1999.90;999.90;;;24.20;42.30;;;;;;5017002;28;20266;-78
2022/07/01 08:56:40;;;;;;;1999.90;999.90;;;24.40;42.10;;;;;;5033951;28;20037;-78
2022/07/01 08:58:24;;;;;;;1999.90;999.90;;;24.60;41.80;;;;;;5036771;28;20041;-78
2022/07/01 09:00:50;;;;;;;1999.90;999.90;;;24.60;40.90;;;;;;5015574;28;20026;-78
2022/07/01 09:03:20;;;;;;;1999.90;999.90;;;24.70;41.50;;;;;;5031292;28;20059;-78
2022/07/01 09:05:51;;;;;;;1999.90;999.90;;;24.70;41.20;;;;;;5030907;28;20467;-78
2022/07/01 09:08:18;;;;;;;1999.90;999.90;;;24.70;41.80;;;;;;5036187;28;20076;-78
2022/07/01 09:10:44;;;;;;;32.70;31.02;;;24.70;40.50;;;;;;5036332;28;20033;-78
2022/07/01 09:13:11;;;;;;;32.97;31.38;;;24.20;39.70;;;;;;5016232;28;20391;-78
2022/07/01 09:15:39;;;;;;;33.38;31.77;;;24.10;41.40;;;;;;5018126;28;20403;-78
2022/07/01 09:18:09;;;;;;;33.33;31.33;;;24.00;40.80;;;;;;5033949;28;20084;-78
2022/07/01 09:20:36;;;;;;;1508.57;758.15;;;23.90;43.00;;;;;;5034213;28;20029;-78
2022/07/01 09:23:10;;;;;;;33.53;31.83;;;24.10;42.00;;;;;;5033514;28;20044;-78
2022/07/01 09:25:44;;;;;;;1999.90;999.90;;;24.00;40.70;;;;;;5033756;28;20391;-78
2022/07/01 09:28:14;;;;;;;1999.90;999.90;;;24.20;41.80;;;;;;5032380;28;20034;-78
2022/07/01 09:30:42;;;;;;;1999.90;999.90;;;24.40;40.00;;;;;;5035821;28;20503;-77
2022/07/01 09:33:16;;;;;;;1999.90;999.90;;;24.60;40.70;;;;;;5030140;28;20037;-78
2022/07/01 09:35:44;;;;;;;1999.90;999.90;;;24.80;41.20;;;;;;5031657;28;20036;-78
2022/07/01 09:38:14;;;;;;;1999.90;999.90;;;25.10;39.80;;;;;;5036696;28;20037;-78
2022/07/01 09:40:56;;;;;;;1999.90;999.90;;;25.30;39.90;;;;;;5002129;28;20384;-78
2022/07/01 09:43:29;;;;;;;34.83;33.13;;;25.10;39.10;;;;;;5031790;28;20049;-78
2022/07/01 09:46:09;;;;;;;1999.90;999.90;;;24.90;39.50;;;;;;5015156;28;20029;-78
2022/07/01 09:48:35;;;;;;;34.90;33.10;;;24.80;40.30;;;;;;5032319;28;20025;-78
2022/07/01 09:51:02;;;;;;;1999.90;999.90;;;24.80;39.70;;;;;;5033048;28;20029;-78
2022/07/01 09:53:28;;;;;;;36.22;34.22;;;24.80;40.30;;;;;;5032756;28;20416;-78
2022/07/01 09:55:54;;;;;;;34.42;32.70;;;24.90;39.50;;;;;;5035259;28;20026;-78
2022/07/01 09:58:20;;;;;;;1999.90;999.90;;;24.80;39.80;;;;;;5031984;28;20383;-78
2022/07/01 10:00:47;;;;;;;35.72;33.92;;;24.60;40.30;;;;;;5035356;28;20025;-78
2022/07/01 10:03:13;;;;;;;34.78;33.08;;;24.30;40.10;;;;;;5013832;28;20040;-78
2022/07/01 10:05:45;;;;;;;34.08;32.17;;;24.30;40.30;;;;;;5031309;28;20025;-78
2022/07/01 10:08:37;;;;;;;31.83;30.33;;;24.50;41.10;;;;;;5035899;28;20407;-78
2022/07/01 10:11:42;;;;;;;31.75;30.15;;;24.70;39.50;;;;;;5034520;28;20034;-78
2022/07/01 10:14:11;;;;;;;31.63;29.90;;;24.60;38.40;;;;;;5033833;28;20033;-78
2022/07/01 10:16:38;;;;;;;34.33;32.42;;;24.40;40.40;;;;;;5014183;28;20041;-78
2022/07/01 10:19:24;;;;;;;31.70;30.10;;;24.60;40.30;;;;;;5014581;28;20050;-78
2022/07/01 10:21:52;;;;;;;32.63;30.92;;;24.70;39.70;;;;;;5034810;28;20037;-78
2022/07/01 10:24:18;;;;;;;33.50;31.75;;;24.60;38.60;;;;;;5034619;28;20048;-78
2022/07/01 10:26:45;;;;;;;32.97;31.35;;;24.60;39.20;;;;;;5013083;28;20522;-78
2022/07/01 10:29:33;;;;;;;31.25;29.58;;;24.80;39.20;;;;;;5035942;28;20072;-78
2022/07/01 10:32:26;;;;;;;34.47;32.67;;;25.00;37.50;;;;;;5034398;28;20045;-78
2022/07/01 10:35:06;;;;;;;34.05;32.42;;;24.90;40.20;;;;;;5003494;28;20514;-78
2022/07/01 10:37:32;;;;;;;34.95;32.75;;;24.80;38.90;;;;;;5034620;28;20372;-78
2022/07/01 10:40:02;;;;;;;34.25;32.55;;;24.70;39.90;;;;;;5031070;28;20034;-78
2022/07/01 10:42:32;;;;;;;33.63;31.88;;;24.80;40.20;;;;;;5030661;28;20108;-78
2022/07/01 10:45:05;;;;;;;33.75;31.98;;;24.90;38.80;;;;;;5029841;28;20029;-78
2022/07/01 10:47:31;;;;;;;31.42;29.77;;;25.20;39.10;;;;;;5032111;28;20038;-78
2022/07/01 10:50:06;;;;;;;35.63;33.75;;;25.30;38.20;;;;;;5016987;28;20399;-78
2022/07/01 10:52:33;;;;;;;33.25;31.45;;;25.10;38.10;;;;;;5030771;28;20503;-78
2022/07/01 10:55:00;;;;;;;33.95;32.25;;;25.10;37.50;;;;;;5030552;28;20064;-78
2022/07/01 10:57:31;;;;;;;32.53;30.92;;;25.10;38.00;;;;;;5032838;28;20045;-78
2022/07/01 11:00:00;;;;;;;33.83;32.20;;;25.10;38.20;;;;;;5029257;28;20025;-78
2022/07/01 11:02:36;;;;;;;35.05;33.00;;;24.90;37.30;;;;;;5032718;28;20037;-78
2022/07/01 11:05:14;;;;;;;33.30;31.45;;;24.60;38.80;;;;;;5012206;28;20038;-78
2022/07/01 11:07:45;;;;;;;31.98;30.27;;;24.80;38.70;;;;;;5032171;28;20045;-78
2022/07/01 11:10:12;;;;;;;32.03;30.42;;;24.80;38.00;;;;;;5030891;28;20030;-78
2022/07/01 11:12:38;;;;;;;32.10;30.50;;;24.80;38.50;;;;;;5030517;28;20025;-78
2022/07/01 11:15:10;;;;;;;33.00;31.30;;;24.50;37.20;;;;;;5011281;28;20045;-78
2022/07/01 11:17:42;;;;;;;31.95;30.23;;;24.30;38.80;;;;;;5031349;28;20053;-78
2022/07/01 11:20:08;;;;;;;32.75;31.15;;;24.30;38.30;;;;;;5034871;28;20392;-78
2022/07/01 11:22:35;;;;;;;32.40;30.80;;;24.30;40.00;;;;;;5034222;28;20045;-78
2022/07/01 11:25:05;;;;;;;32.88;30.98;;;24.50;39.30;;;;;;5034096;28;20060;-78
2022/07/01 11:27:31;;;;;;;33.70;32.00;;;24.50;39.50;;;;;;5030122;28;20013;-78
2022/07/01 11:29:59;;;;;;;33.40;31.42;;;24.50;39.60;;;;;;5028693;28;20037;-78
2022/07/01 11:32:29;;;;;;;34.00;32.08;;;24.60;39.50;;;;;;5015306;28;20040;-78
2022/07/01 11:34:56;;;;;;;33.87;32.07;;;24.70;39.10;;;;;;5032399;28;20036;-78
2022/07/01 11:40:11;;;;;;;31.38;29.67;;;24.70;38.70;;;;;;5035755;28;20044;-77
2022/07/01 11:42:37;;;;;;;33.20;31.38;;;24.10;38.20;;;;;;5013754;28;20036;-77
2022/07/01 11:45:04;;;;;;;35.05;33.25;;;23.90;40.20;;;;;;5026862;28;20045;-78
2022/07/01 11:47:30;;;;;;;33.33;31.63;;;24.20;41.20;;;;;;5032336;28;20029;-78
2022/07/01 11:49:57;;;;;;;33.70;32.00;;;24.50;39.20;;;;;;5034135;28;20037;-78
2022/07/01 11:52:23;;;;;;;35.28;33.50;;;24.80;39.50;;;;;;5033802;28;20077;-77
2022/07/01 11:54:50;;;;;;;34.13;32.33;;;24.80;39.00;;;;;;5033893;28;20053;-78
2022/07/01 11:57:29;;;;;;;34.13;32.25;;;24.90;38.90;;;;;;5032799;28;20028;-78
2022/07/01 11:59:56;;;;;;;33.35;31.75;;;24.80;37.20;;;;;;5014954;28;20026;-78
2022/07/01 12:02:23;;;;;;;33.20;31.40;;;24.60;38.50;;;;;;5030919;28;20029;-78
2022/07/01 12:04:50;;;;;;;34.90;33.20;;;24.70;37.70;;;;;;5032478;28;20041;-78
2022/07/01 12:07:16;;;;;;;34.92;33.13;;;24.90;37.50;;;;;;5029650;28;20049;-78
2022/07/01 12:09:42;;;;;;;33.55;31.92;;;24.90;37.20;;;;;;5039782;28;20037;-78
2022/07/01 12:12:19;;;;;;;34.90;33.00;;;25.10;37.50;;;;;;5026738;28;20034;-78
2022/07/01 12:14:56;;;;;;;35.63;33.63;;;25.20;37.80;;;;;;5027944;28;20045;-78
2022/07/01 12:17:23;;;;;;;35.42;33.72;;;25.20;37.40;;;;;;5040310;28;20026;-78
2022/07/01 12:19:49;;;;;;;35.65;33.65;;;24.90;35.90;;;;;;5032771;28;20036;-78
2022/07/01 12:22:18;;;;;;;34.13;32.25;;;24.70;37.60;;;;;;5013334;28;20022;-78
2022/07/01 12:24:45;;;;;;;33.35;31.75;;;24.70;38.00;;;;;;5033570;28;20399;-78
2022/07/01 12:27:11;;;;;;;34.30;32.60;;;24.80;37.90;;;;;;5030073;28;20041;-78
2022/07/01 12:29:46;;;;;;;35.50;33.65;;;24.90;38.30;;;;;;5029602;28;20052;-78
2022/07/01 12:32:22;;;;;;;36.55;34.75;;;25.00;37.60;;;;;;5033559;28;20045;-78
2022/07/01 12:34:52;;;;;;;35.97;34.05;;;25.20;37.80;;;;;;5031475;28;20025;-78
2022/07/01 12:37:20;;;;;;;34.25;32.47;;;25.30;37.30;;;;;;5032257;28;20076;-78
2022/07/01 12:39:50;;;;;;;35.40;33.70;;;25.30;36.50;;;;;;5036782;28;20048;-78
2022/07/01 12:42:33;;;;;;;34.70;33.00;;;25.20;37.60;;;;;;5018359;28;20037;-78
2022/07/01 12:45:01;;;;;;;34.63;32.83;;;25.00;37.20;;;;;;5017842;28;20494;-78